Time;durP1;ratioP1;P1;durP2;ratioP2;P2;SDS_P1;SDS_P2;PMS_P1;PMS_P2;Temp;Humidity;BMP_temperature;BMP_pressure;BME280_temperature;BME280_humidity;BME280_pressure;Samples;Min_cycle;Max_cycle;Signal;HPM_P1;HPM_P2
2022/06/15 00:01:40;;;;;;;2.43;2.33;;;14.30;99.90;;;;;;476223;250;28312;-71
2022/06/15 00:03:42;;;;;;;2.20;2.10;;;14.30;99.90;;;;;;476319;250;28578;-72
2022/06/15 00:05:43;;;;;;;2.00;1.90;;;14.20;99.90;;;;;;476290;250;28473;-71
2022/06/15 00:07:44;;;;;;;2.00;1.90;;;14.10;99.90;;;;;;476293;250;28855;-71
2022/06/15 00:09:45;;;;;;;2.40;2.30;;;14.00;99.90;;;;;;476293;250;29758;-70
2022/06/15 00:11:47;;;;;;;2.33;2.23;;;14.00;99.90;;;;;;476302;250;29253;-71
2022/06/15 00:13:48;;;;;;;2.20;2.10;;;14.00;99.90;;;;;;476304;250;29098;-73
2022/06/15 00:15:49;;;;;;;2.10;2.00;;;14.00;99.90;;;;;;476279;250;28477;-71
2022/06/15 00:17:50;;;;;;;2.50;2.30;;;13.90;99.90;;;;;;476293;250;28482;-71
2022/06/15 00:19:52;;;;;;;2.20;2.10;;;13.90;99.90;;;;;;476252;250;28844;-71
2022/06/15 00:21:53;;;;;;;2.17;2.07;;;13.90;99.90;;;;;;476291;250;28586;-71
2022/06/15 00:23:54;;;;;;;1.90;1.80;;;13.90;99.90;;;;;;476287;250;28606;-72
2022/06/15 00:25:55;;;;;;;2.30;2.10;;;13.80;99.90;;;;;;476276;249;28346;-71
2022/06/15 00:27:57;;;;;;;2.10;2.00;;;13.70;99.90;;;;;;476279;250;28306;-71
2022/06/15 00:29:58;;;;;;;2.43;2.30;;;13.70;99.90;;;;;;476286;250;28519;-71
2022/06/15 00:31:59;;;;;;;2.07;1.97;;;13.70;99.90;;;;;;476295;250;28228;-71
2022/06/15 00:34:00;;;;;;;2.60;2.40;;;13.60;99.90;;;;;;476289;250;28769;-72
2022/06/15 00:36:02;;;;;;;2.13;2.03;;;13.70;99.90;;;;;;476238;250;28757;-71
2022/06/15 00:38:03;;;;;;;2.70;2.33;;;13.80;99.90;;;;;;476302;250;29010;-71
2022/06/15 00:40:04;;;;;;;2.10;2.00;;;13.80;99.90;;;;;;476292;250;29884;-70
2022/06/15 00:42:06;;;;;;;2.40;2.30;;;13.80;99.90;;;;;;476271;250;28552;-71
2022/06/15 00:44:07;;;;;;;2.50;2.30;;;13.70;99.90;;;;;;476286;250;28520;-71
2022/06/15 00:46:08;;;;;;;2.40;2.30;;;13.70;99.90;;;;;;476267;250;28373;-71
2022/06/15 00:48:09;;;;;;;2.43;2.23;;;13.70;99.90;;;;;;476276;250;28846;-71
2022/06/15 00:50:10;;;;;;;2.10;2.00;;;13.70;99.90;;;;;;476274;250;29202;-71
2022/06/15 00:52:12;;;;;;;2.37;2.17;;;13.70;99.90;;;;;;476323;250;28491;-71
2022/06/15 00:54:13;;;;;;;2.63;2.50;;;13.70;99.90;;;;;;476277;250;28317;-72
2022/06/15 00:56:14;;;;;;;2.40;2.30;;;13.70;99.90;;;;;;476297;249;28262;-70
2022/06/15 00:58:15;;;;;;;2.07;1.97;;;13.70;99.90;;;;;;476209;250;28389;-73
2022/06/15 01:00:17;;;;;;;2.50;2.40;;;13.60;99.90;;;;;;476294;250;28996;-73
2022/06/15 01:02:18;;;;;;;2.10;2.00;;;13.70;99.90;;;;;;476287;250;28926;-71
2022/06/15 01:04:19;;;;;;;2.20;2.10;;;13.60;99.90;;;;;;476287;250;28761;-72
2022/06/15 01:06:22;;;;;;;2.30;2.20;;;13.60;99.90;;;;;;476299;250;28367;-71
2022/06/15 01:08:22;;;;;;;2.20;2.10;;;13.60;99.90;;;;;;476260;250;28386;-71
2022/06/15 01:10:23;;;;;;;2.17;2.07;;;13.50;99.90;;;;;;476324;250;28184;-70
2022/06/15 01:12:25;;;;;;;2.20;2.10;;;13.50;99.90;;;;;;476327;250;28143;-71
2022/06/15 01:14:25;;;;;;;2.40;2.30;;;13.50;99.90;;;;;;476303;250;28363;-71
2022/06/15 01:16:27;;;;;;;2.30;2.20;;;13.50;99.90;;;;;;476298;250;28137;-71
2022/06/15 01:18:28;;;;;;;2.67;2.47;;;13.50;99.90;;;;;;476284;250;28228;-71
2022/06/15 01:20:29;;;;;;;2.60;2.40;;;13.50;99.90;;;;;;476291;250;28393;-73
2022/06/15 01:22:30;;;;;;;2.20;2.10;;;13.40;99.90;;;;;;476282;250;28130;-71
2022/06/15 01:24:32;;;;;;;2.70;2.50;;;13.40;99.90;;;;;;476295;250;28860;-72
2022/06/15 01:26:33;;;;;;;2.60;2.50;;;13.40;99.90;;;;;;476280;250;28908;-71
2022/06/15 01:28:34;;;;;;;2.40;2.30;;;13.40;99.90;;;;;;476269;250;28863;-71
2022/06/15 01:30:35;;;;;;;2.20;2.10;;;13.40;99.90;;;;;;476295;250;28281;-73
2022/06/15 01:32:37;;;;;;;2.23;2.13;;;13.30;99.90;;;;;;476273;250;28149;-71
2022/06/15 01:34:38;;;;;;;2.10;2.00;;;13.30;99.90;;;;;;476276;250;28290;-71
2022/06/15 01:36:39;;;;;;;2.23;2.13;;;13.20;99.90;;;;;;476256;250;28125;-71
2022/06/15 01:38:40;;;;;;;2.10;2.00;;;13.10;99.90;;;;;;476284;250;28332;-71
2022/06/15 01:40:42;;;;;;;2.20;2.10;;;13.00;99.90;;;;;;476291;250;28758;-71
2022/06/15 01:42:43;;;;;;;2.40;2.20;;;12.90;99.90;;;;;;476315;250;28247;-71
2022/06/15 01:44:44;;;;;;;2.50;2.30;;;12.90;99.90;;;;;;476320;250;28270;-71
2022/06/15 01:46:45;;;;;;;2.17;2.07;;;12.90;99.90;;;;;;476269;250;28275;-71
2022/06/15 01:48:47;;;;;;;2.37;2.23;;;12.90;99.90;;;;;;476263;250;28864;-71
2022/06/15 01:50:48;;;;;;;2.30;2.20;;;12.90;99.90;;;;;;476264;250;28992;-70
2022/06/15 01:52:49;;;;;;;2.30;2.20;;;13.00;99.90;;;;;;476307;250;28607;-71
2022/06/15 01:54:50;;;;;;;2.30;2.20;;;13.00;99.90;;;;;;476310;250;28790;-72
2022/06/15 01:56:52;;;;;;;2.10;2.00;;;13.10;99.90;;;;;;476287;250;28265;-70
2022/06/15 01:58:53;;;;;;;2.00;1.90;;;13.00;99.90;;;;;;476287;250;28322;-71
2022/06/15 02:00:56;;;;;;;2.10;2.00;;;13.00;99.90;;;;;;476301;250;28208;-74
2022/06/15 02:02:55;;;;;;;2.40;2.20;;;12.90;99.90;;;;;;476152;250;28201;-70
2022/06/15 02:04:57;;;;;;;2.60;2.40;;;12.70;99.90;;;;;;476299;250;28192;-72
2022/06/15 02:06:58;;;;;;;2.40;2.30;;;12.60;99.90;;;;;;476272;250;28142;-70
2022/06/15 02:08:59;;;;;;;2.30;2.20;;;12.50;99.90;;;;;;476276;250;28256;-70
2022/06/15 02:11:00;;;;;;;2.47;2.37;;;12.50;99.90;;;;;;476276;250;28321;-73
2022/06/15 02:13:02;;;;;;;2.40;2.30;;;12.40;99.90;;;;;;476298;250;28377;-71
2022/06/15 02:15:03;;;;;;;2.60;2.47;;;12.40;99.90;;;;;;476279;250;28747;-72
2022/06/15 02:17:04;;;;;;;2.27;2.17;;;12.40;99.90;;;;;;476259;250;28610;-70
2022/06/15 02:19:05;;;;;;;2.67;2.47;;;12.40;99.90;;;;;;476269;250;28646;-70
2022/06/15 02:21:08;;;;;;;3.40;3.10;;;;;;;;;;476287;250;28073;-71
2022/06/15 02:23:11;;;;;;;2.70;2.50;;;12.50;99.90;;;;;;468705;253;27486;-71
2022/06/15 02:25:10;;;;;;;3.10;2.50;;;12.50;99.90;;;;;;467750;254;29064;-70
2022/06/15 02:27:12;;;;;;;2.57;2.47;;;12.50;99.90;;;;;;476283;250;29053;-71
2022/06/15 02:29:13;;;;;;;2.60;2.50;;;12.40;99.90;;;;;;476299;250;28626;-71
2022/06/15 02:31:14;;;;;;;2.60;2.50;;;12.30;99.90;;;;;;476243;250;28767;-71
2022/06/15 02:33:15;;;;;;;2.80;2.60;;;12.20;99.90;;;;;;476273;250;28170;-71
2022/06/15 02:35:20;;;;;;;2.87;2.77;;;12.20;99.90;;;;;;476276;250;28391;-71
2022/06/15 02:37:18;;;;;;;2.77;2.57;;;12.10;99.90;;;;;;476116;250;28340;-71
2022/06/15 02:39:19;;;;;;;2.70;2.60;;;12.20;99.90;;;;;;476304;250;28505;-72
2022/06/15 02:41:20;;;;;;;2.90;2.70;;;12.30;99.90;;;;;;476315;250;28848;-71
2022/06/15 02:43:22;;;;;;;2.67;2.47;;;12.40;99.90;;;;;;476284;250;28521;-71
2022/06/15 02:45:23;;;;;;;3.00;2.90;;;12.40;99.90;;;;;;476304;250;28485;-71
2022/06/15 02:47:24;;;;;;;2.70;2.60;;;12.40;99.90;;;;;;476268;250;28370;-71
2022/06/15 02:49:25;;;;;;;2.57;2.37;;;12.40;99.90;;;;;;476309;250;28898;-72
2022/06/15 02:51:27;;;;;;;2.53;2.37;;;12.40;99.90;;;;;;476288;250;29264;-71
2022/06/15 02:53:28;;;;;;;2.30;2.20;;;12.30;99.90;;;;;;476303;250;28794;-71
2022/06/15 02:55:29;;;;;;;3.10;2.90;;;12.20;99.90;;;;;;476293;250;28795;-70
2022/06/15 02:57:30;;;;;;;2.67;2.50;;;12.10;99.90;;;;;;476303;250;28354;-71
2022/06/15 02:59:32;;;;;;;2.50;2.40;;;12.00;99.90;;;;;;476266;250;28218;-74
2022/06/15 03:01:33;;;;;;;2.57;2.47;;;12.10;99.90;;;;;;476285;250;28793;-71
2022/06/15 03:03:34;;;;;;;3.10;2.90;;;12.20;99.90;;;;;;476265;250;28503;-71
2022/06/15 03:05:35;;;;;;;2.43;2.33;;;12.20;99.90;;;;;;476276;250;28281;-74
2022/06/15 03:07:37;;;;;;;2.53;2.37;;;12.30;99.90;;;;;;476276;250;28542;-71
2022/06/15 03:09:38;;;;;;;2.77;2.57;;;12.20;99.90;;;;;;476280;250;28667;-72
2022/06/15 03:11:40;;;;;;;2.67;2.47;;;12.30;99.90;;;;;;476265;250;29361;-71
2022/06/15 03:13:40;;;;;;;2.80;2.60;;;12.30;99.90;;;;;;476272;246;28791;-70
2022/06/15 03:15:42;;;;;;;2.43;2.33;;;12.30;99.90;;;;;;476251;249;29219;-70
2022/06/15 03:17:43;;;;;;;2.40;2.30;;;12.30;99.90;;;;;;476299;250;28934;-70
2022/06/15 03:19:44;;;;;;;2.57;2.37;;;12.30;99.90;;;;;;476293;250;28370;-72
2022/06/15 03:21:45;;;;;;;2.67;2.57;;;12.30;99.90;;;;;;476256;250;28866;-70
2022/06/15 03:23:47;;;;;;;2.30;2.20;;;12.30;99.90;;;;;;476286;250;28521;-71
2022/06/15 03:25:48;;;;;;;2.63;2.47;;;12.30;99.90;;;;;;476362;250;28358;-71
2022/06/15 03:27:49;;;;;;;2.13;2.03;;;12.40;99.90;;;;;;476293;250;28307;-71
2022/06/15 03:29:50;;;;;;;2.60;2.50;;;12.30;99.90;;;;;;476287;250;28812;-73
2022/06/15 03:31:52;;;;;;;2.20;2.10;;;12.20;99.90;;;;;;476277;250;28277;-71
2022/06/15 03:33:53;;;;;;;2.77;2.57;;;12.10;99.90;;;;;;476298;250;29362;-71
2022/06/15 03:35:55;;;;;;;2.50;2.40;;;12.10;99.90;;;;;;476304;250;29367;-71
2022/06/15 03:37:56;;;;;;;2.33;2.23;;;12.10;99.90;;;;;;476251;250;28624;-70
2022/06/15 03:39:57;;;;;;;2.50;2.37;;;12.00;99.90;;;;;;476317;246;28794;-71
2022/06/15 03:41:58;;;;;;;2.70;2.33;;;12.00;99.90;;;;;;476294;250;28774;-71
2022/06/15 03:43:59;;;;;;;2.47;2.37;;;12.20;99.90;;;;;;476297;250;28388;-71
2022/06/15 03:46:01;;;;;;;2.43;2.30;;;12.20;99.90;;;;;;476286;250;28541;-72
2022/06/15 03:48:02;;;;;;;2.50;2.30;;;12.20;99.90;;;;;;476291;250;28271;-71
2022/06/15 03:50:04;;;;;;;2.40;2.30;;;;;;;;;;476303;250;28401;-71
2022/06/15 03:52:05;;;;;;;2.40;2.30;;;12.10;99.90;;;;;;468743;253;27549;-71
2022/06/15 03:54:07;;;;;;;2.50;2.40;;;12.10;99.90;;;;;;467853;254;28630;-70
2022/06/15 03:56:08;;;;;;;2.80;2.67;;;12.10;99.90;;;;;;476273;250;28110;-71
2022/06/15 03:58:09;;;;;;;2.50;2.40;;;12.00;99.90;;;;;;476313;250;28828;-72
2022/06/15 04:00:11;;;;;;;3.17;2.80;;;12.10;99.90;;;;;;476297;250;27993;-71
2022/06/15 04:02:12;;;;;;;2.27;2.17;;;12.10;99.90;;;;;;476316;250;28593;-71
2022/06/15 04:04:13;;;;;;;2.50;2.40;;;12.10;99.90;;;;;;476315;250;28022;-71
2022/06/15 04:06:14;;;;;;;2.73;2.53;;;12.10;99.90;;;;;;476305;250;28482;-71
2022/06/15 04:10:35;;;;;;;2.70;2.50;;;12.30;99.90;;;;;;476313;250;28143;-71
2022/06/15 04:12:36;;;;;;;2.37;2.27;;;12.30;99.90;;;;;;476303;250;28471;-70
2022/06/15 04:14:38;;;;;;;6.63;2.40;;;12.30;99.90;;;;;;476292;250;28310;-71
2022/06/15 04:16:39;;;;;;;2.60;2.40;;;12.30;99.90;;;;;;476286;250;29257;-71
2022/06/15 04:18:40;;;;;;;2.00;1.90;;;12.30;99.90;;;;;;476294;249;28814;-72
2022/06/15 04:20:42;;;;;;;2.53;2.30;;;12.30;99.90;;;;;;476303;250;29499;-71
2022/06/15 04:22:43;;;;;;;3.83;2.37;;;12.40;99.90;;;;;;476306;250;28921;-70
2022/06/15 04:24:44;;;;;;;2.73;2.53;;;12.50;99.90;;;;;;476302;249;28312;-72
2022/06/15 04:26:45;;;;;;;3.57;2.80;;;12.40;99.90;;;;;;476307;250;28264;-70
2022/06/15 04:28:46;;;;;;;2.73;2.53;;;12.20;99.90;;;;;;476296;250;28241;-71
2022/06/15 04:30:48;;;;;;;2.30;2.20;;;12.20;99.90;;;;;;476301;250;28277;-71
2022/06/15 04:32:49;;;;;;;2.20;2.10;;;12.30;99.90;;;;;;476288;250;28399;-71
2022/06/15 04:34:50;;;;;;;2.77;2.63;;;12.40;99.90;;;;;;476311;250;28911;-72
2022/06/15 04:36:51;;;;;;;2.60;2.40;;;12.50;99.90;;;;;;476287;249;28924;-71
2022/06/15 04:38:53;;;;;;;2.70;2.50;;;12.70;99.90;;;;;;476311;250;28262;-71
2022/06/15 04:40:54;;;;;;;2.67;2.43;;;12.80;99.90;;;;;;476270;250;28761;-71
2022/06/15 04:42:55;;;;;;;3.30;3.00;;;12.80;99.90;;;;;;476287;250;28721;-71
2022/06/15 04:44:56;;;;;;;2.70;2.50;;;12.80;99.90;;;;;;476284;250;28658;-73
2022/06/15 04:46:58;;;;;;;3.10;2.43;;;12.80;99.90;;;;;;476309;250;28708;-71
2022/06/15 04:49:00;;;;;;;2.63;2.53;;;12.80;99.90;;;;;;476286;250;28177;-72
2022/06/15 04:51:00;;;;;;;2.73;2.63;;;12.80;99.90;;;;;;476206;250;28469;-71
2022/06/15 04:53:02;;;;;;;2.50;2.40;;;12.70;99.90;;;;;;476277;250;28289;-71
2022/06/15 04:55:04;;;;;;;2.77;2.57;;;12.70;99.90;;;;;;476294;250;28254;-73
2022/06/15 04:57:04;;;;;;;3.00;2.80;;;12.70;99.90;;;;;;476187;250;28389;-71
2022/06/15 04:59:05;;;;;;;2.93;2.73;;;12.60;99.90;;;;;;476266;250;28321;-72
2022/06/15 05:01:06;;;;;;;3.27;3.07;;;12.60;99.90;;;;;;476277;250;28218;-71
2022/06/15 05:03:08;;;;;;;3.10;2.90;;;12.60;99.90;;;;;;476283;250;28170;-71
2022/06/15 05:05:09;;;;;;;2.90;2.70;;;12.60;99.90;;;;;;476280;250;28174;-72
2022/06/15 05:07:10;;;;;;;2.83;2.73;;;12.70;99.90;;;;;;476292;250;28869;-71
2022/06/15 05:09:11;;;;;;;3.03;2.83;;;12.80;99.90;;;;;;476300;250;29118;-72
2022/06/15 05:11:13;;;;;;;3.07;2.77;;;12.90;99.90;;;;;;476257;250;28822;-71
2022/06/15 05:13:14;;;;;;;3.00;2.80;;;13.00;99.90;;;;;;476223;249;28173;-71
2022/06/15 05:15:15;;;;;;;2.87;2.77;;;13.10;99.90;;;;;;476266;250;28170;-73
2022/06/15 05:17:16;;;;;;;2.83;2.73;;;13.20;99.90;;;;;;476218;250;28221;-71
2022/06/15 05:19:18;;;;;;;2.80;2.60;;;13.30;99.90;;;;;;476257;250;28568;-71
2022/06/15 05:21:19;;;;;;;2.97;2.77;;;13.40;99.90;;;;;;476238;250;28286;-71
2022/06/15 05:23:20;;;;;;;2.80;2.60;;;13.40;99.90;;;;;;476266;250;28293;-71
2022/06/15 05:25:21;;;;;;;2.70;2.60;;;13.50;99.90;;;;;;476306;250;28286;-72
2022/06/15 05:27:23;;;;;;;2.90;2.70;;;13.60;99.90;;;;;;476285;250;28283;-71
2022/06/15 05:29:25;;;;;;;2.50;2.40;;;13.70;99.90;;;;;;476298;250;28274;-71
2022/06/15 05:31:25;;;;;;;3.40;2.83;;;13.70;99.90;;;;;;476317;250;29402;-71
2022/06/15 05:33:27;;;;;;;2.87;2.67;;;13.80;99.90;;;;;;476325;250;28934;-71
2022/06/15 05:35:28;;;;;;;2.87;2.67;;;13.90;99.90;;;;;;476347;249;29011;-72
2022/06/15 05:37:29;;;;;;;3.10;2.90;;;13.90;99.90;;;;;;476319;250;28431;-71
2022/06/15 05:39:30;;;;;;;3.10;2.80;;;14.00;99.90;;;;;;476315;250;28493;-71
2022/06/15 05:41:31;;;;;;;2.80;2.60;;;14.00;99.90;;;;;;476266;250;28896;-71
2022/06/15 05:43:33;;;;;;;2.80;2.60;;;14.10;99.90;;;;;;476272;250;28857;-71
2022/06/15 05:45:34;;;;;;;2.63;2.43;;;14.10;99.90;;;;;;476278;250;28864;-72
2022/06/15 05:47:35;;;;;;;2.53;2.43;;;14.20;99.90;;;;;;476280;250;28466;-71
2022/06/15 05:49:36;;;;;;;3.30;3.10;;;14.30;99.90;;;;;;476263;250;28813;-71
2022/06/15 05:51:38;;;;;;;3.07;2.87;;;14.30;99.90;;;;;;476261;250;28868;-71
2022/06/15 05:53:39;;;;;;;2.63;2.53;;;14.40;99.90;;;;;;476298;250;28389;-71
2022/06/15 05:55:40;;;;;;;3.10;2.80;;;14.50;99.90;;;;;;476311;250;29047;-72
2022/06/15 05:57:41;;;;;;;2.90;2.70;;;14.50;99.90;;;;;;476261;250;29444;-71
2022/06/15 05:59:43;;;;;;;2.87;2.67;;;14.60;99.90;;;;;;476260;250;29406;-71
2022/06/15 06:01:44;;;;;;;3.13;2.93;;;14.70;99.90;;;;;;476256;250;29233;-71
2022/06/15 06:03:45;;;;;;;3.17;2.97;;;14.70;99.90;;;;;;476281;250;28813;-70
2022/06/15 06:05:46;;;;;;;3.77;3.47;;;14.80;99.90;;;;;;476292;250;28513;-72
2022/06/15 06:07:48;;;;;;;3.07;2.87;;;14.90;99.90;;;;;;476273;250;28781;-71
2022/06/15 06:09:49;;;;;;;2.97;2.77;;;15.00;99.90;;;;;;476270;250;28816;-72
2022/06/15 06:11:50;;;;;;;3.00;2.80;;;15.10;99.90;;;;;;476251;250;28789;-71
2022/06/15 06:13:51;;;;;;;2.70;2.60;;;15.20;99.90;;;;;;476274;250;28845;-72
2022/06/15 06:15:55;;;;;;;2.90;2.60;;;15.30;99.90;;;;;;476284;250;28825;-72
2022/06/15 06:17:54;;;;;;;2.93;2.73;;;15.30;99.90;;;;;;476122;250;28873;-71
2022/06/15 06:19:55;;;;;;;3.00;2.80;;;15.40;99.90;;;;;;476273;250;29399;-72
2022/06/15 06:21:57;;;;;;;3.10;2.90;;;15.50;99.90;;;;;;476272;250;29254;-71
2022/06/15 06:23:58;;;;;;;2.90;2.73;;;15.60;99.90;;;;;;476294;250;29378;-71
2022/06/15 06:25:59;;;;;;;3.03;2.83;;;15.60;99.90;;;;;;476294;250;29407;-73
2022/06/15 06:28:00;;;;;;;2.60;2.50;;;15.80;99.90;;;;;;476271;250;28874;-71
2022/06/15 06:30:02;;;;;;;2.77;2.60;;;15.90;99.90;;;;;;476270;250;28904;-72
2022/06/15 06:32:03;;;;;;;3.03;2.83;;;16.00;99.90;;;;;;476265;250;28800;-71
2022/06/15 06:34:04;;;;;;;4.00;2.93;;;16.10;99.90;;;;;;476292;250;28832;-71
2022/06/15 06:36:05;;;;;;;3.10;2.90;;;16.20;99.90;;;;;;476270;250;28905;-73
2022/06/15 06:38:07;;;;;;;3.23;2.60;;;16.30;99.90;;;;;;476226;250;28788;-72
2022/06/15 06:40:08;;;;;;;2.67;2.57;;;16.30;99.90;;;;;;476247;250;28825;-72
2022/06/15 06:42:09;;;;;;;2.90;2.70;;;16.40;99.90;;;;;;475701;246;28877;-73
2022/06/15 06:44:10;;;;;;;2.47;2.30;;;16.50;99.90;;;;;;475902;250;29239;-71
2022/06/15 06:46:12;;;;;;;2.90;2.57;;;16.50;99.90;;;;;;476168;250;29347;-71
2022/06/15 06:48:13;;;;;;;2.80;2.60;;;16.70;99.90;;;;;;476283;249;29225;-71
2022/06/15 06:50:14;;;;;;;2.80;2.60;;;16.70;99.90;;;;;;476305;250;29434;-71
2022/06/15 06:52:15;;;;;;;2.60;2.40;;;16.80;99.90;;;;;;476313;250;28928;-72
2022/06/15 06:54:17;;;;;;;2.70;2.50;;;16.80;99.90;;;;;;476352;250;28851;-71
2022/06/15 06:56:18;;;;;;;3.13;2.87;;;16.90;99.90;;;;;;476304;250;28840;-72
2022/06/15 06:58:19;;;;;;;2.60;2.40;;;16.90;99.90;;;;;;476305;250;28773;-71
2022/06/15 07:00:20;;;;;;;2.90;2.70;;;17.10;99.90;;;;;;476334;250;28817;-71
2022/06/15 07:02:22;;;;;;;2.90;2.70;;;17.10;99.90;;;;;;476347;246;28828;-71
2022/06/15 07:04:23;;;;;;;2.70;2.60;;;17.20;99.90;;;;;;476326;250;28907;-71
2022/06/15 07:06:24;;;;;;;2.33;2.23;;;17.30;99.90;;;;;;476260;250;28816;-72
2022/06/15 07:08:25;;;;;;;2.27;2.17;;;17.40;99.90;;;;;;476293;249;28830;-71
2022/06/15 07:10:27;;;;;;;2.47;2.30;;;17.50;99.90;;;;;;476268;249;29438;-72
2022/06/15 07:12:28;;;;;;;2.60;2.40;;;17.60;99.90;;;;;;476314;250;29417;-73
2022/06/15 07:14:29;;;;;;;2.80;2.60;;;17.70;99.90;;;;;;476319;249;29332;-72
2022/06/15 07:16:30;;;;;;;2.50;2.40;;;17.90;99.90;;;;;;476305;250;28888;-72
2022/06/15 07:18:32;;;;;;;2.60;2.40;;;17.90;99.90;;;;;;476302;250;28812;-71
2022/06/15 07:20:33;;;;;;;2.40;2.23;;;18.10;99.90;;;;;;476308;250;28848;-71
2022/06/15 07:22:34;;;;;;;2.37;2.27;;;18.10;99.90;;;;;;476231;247;28900;-73
2022/06/15 07:24:35;;;;;;;2.47;2.30;;;18.10;99.90;;;;;;476324;250;28871;-71
2022/06/15 07:26:42;;;;;;;2.60;2.50;;;18.10;99.90;;;;;;476285;250;28835;-73
2022/06/15 07:28:40;;;;;;;2.47;2.37;;;18.10;99.90;;;;;;476151;250;28899;-72
2022/06/15 07:30:42;;;;;;;2.73;2.53;;;18.30;99.90;;;;;;476306;249;29410;-72
2022/06/15 07:32:43;;;;;;;2.60;2.40;;;18.40;99.90;;;;;;476293;250;29280;-72
2022/06/15 07:34:44;;;;;;;3.53;2.90;;;18.30;99.90;;;;;;476304;250;29983;-71
2022/06/15 07:36:49;;;;;;;2.43;2.33;;;18.60;99.90;;;;;;476321;250;29251;-72
2022/06/15 07:38:50;;;;;;;2.40;2.20;;;18.60;99.90;;;;;;476310;249;28772;-72
2022/06/15 07:40:51;;;;;;;2.20;2.10;;;18.50;99.90;;;;;;476300;250;28825;-72
2022/06/15 07:42:52;;;;;;;2.40;2.20;;;18.70;99.90;;;;;;476303;250;29244;-72
2022/06/15 07:44:54;;;;;;;2.40;2.30;;;18.90;99.90;;;;;;476287;250;29304;-72
2022/06/15 07:51:34;;;;;;;3.00;2.57;;;19.00;99.90;;;;;;476296;250;28820;-71
2022/06/15 07:53:36;;;;;;;2.80;2.60;;;19.00;99.90;;;;;;476303;250;29287;-73
2022/06/15 07:55:36;;;;;;;2.53;2.43;;;19.30;99.90;;;;;;476226;250;29221;-72
2022/06/15 07:57:38;;;;;;;2.70;2.50;;;19.30;99.90;;;;;;476290;250;29410;-72
2022/06/15 07:59:39;;;;;;;2.60;2.40;;;19.50;99.90;;;;;;476290;249;28773;-72
2022/06/15 08:01:40;;;;;;;2.70;2.50;;;19.50;99.90;;;;;;476300;250;28793;-71
2022/06/15 08:03:41;;;;;;;2.50;2.40;;;19.50;99.90;;;;;;476318;250;28895;-73
2022/06/15 08:05:43;;;;;;;2.67;2.47;;;19.40;99.90;;;;;;476287;249;28816;-72
2022/06/15 08:07:44;;;;;;;2.70;2.50;;;19.40;99.90;;;;;;476300;250;28818;-72
2022/06/15 08:09:45;;;;;;;3.07;2.30;;;19.30;99.90;;;;;;476290;250;28785;-72
2022/06/15 08:14:06;;;;;;;2.70;2.50;;;19.40;99.90;;;;;;476251;250;28828;-72
2022/06/15 08:16:07;;;;;;;2.73;2.53;;;19.50;99.90;;;;;;476293;250;28789;-72
2022/06/15 08:18:09;;;;;;;2.93;2.73;;;19.60;99.90;;;;;;476304;250;28872;-72
2022/06/15 08:20:10;;;;;;;3.27;3.07;;;20.20;99.90;;;;;;476296;250;29150;-75
2022/06/15 08:22:11;;;;;;;3.40;3.10;;;20.20;99.90;;;;;;476315;250;28802;-72
2022/06/15 08:24:12;;;;;;;3.37;3.07;;;20.60;99.90;;;;;;476307;250;28891;-72
2022/06/15 08:26:14;;;;;;;4.50;3.00;;;20.60;99.90;;;;;;476286;250;28785;-72
2022/06/15 08:28:15;;;;;;;6.73;3.43;;;20.70;99.90;;;;;;476300;250;29293;-72
2022/06/15 08:30:16;;;;;;;3.63;3.17;;;20.80;99.90;;;;;;476309;246;29465;-74
2022/06/15 08:32:17;;;;;;;6.50;3.23;;;20.90;99.90;;;;;;476307;250;29376;-72
2022/06/15 08:34:18;;;;;;;3.47;3.17;;;20.80;99.90;;;;;;476292;250;28828;-72
2022/06/15 08:36:20;;;;;;;3.60;3.30;;;20.90;99.90;;;;;;476278;250;28788;-71
2022/06/15 08:38:21;;;;;;;3.83;3.47;;;21.00;99.90;;;;;;476313;250;28821;-72
2022/06/15 08:40:22;;;;;;;3.53;3.23;;;20.90;99.90;;;;;;476255;250;28818;-74
2022/06/15 08:42:23;;;;;;;5.33;3.60;;;20.90;99.90;;;;;;476308;250;28774;-72
2022/06/15 08:44:25;;;;;;;3.50;3.20;;;20.80;99.90;;;;;;476297;250;28845;-73
2022/06/15 08:46:26;;;;;;;3.23;3.03;;;20.60;99.90;;;;;;476268;250;28917;-72
2022/06/15 08:48:27;;;;;;;2.90;2.67;;;20.60;99.90;;;;;;476305;250;28856;-72
2022/06/15 08:50:29;;;;;;;3.03;2.73;;;20.70;99.90;;;;;;476316;250;28844;-75
2022/06/15 08:52:30;;;;;;;2.70;2.50;;;20.90;99.90;;;;;;476316;250;29500;-72
2022/06/15 08:54:31;;;;;;;3.00;2.70;;;21.00;99.90;;;;;;476304;250;29304;-73
2022/06/15 08:56:32;;;;;;;2.70;2.50;;;20.90;99.90;;;;;;476303;249;29434;-72
2022/06/15 08:58:34;;;;;;;3.03;2.80;;;20.90;99.90;;;;;;476292;250;29316;-72
2022/06/15 09:00:35;;;;;;;2.47;2.37;;;20.80;99.90;;;;;;476318;250;28805;-75
2022/06/15 09:02:36;;;;;;;2.60;2.40;;;20.80;99.90;;;;;;476305;250;28870;-72
2022/06/15 09:04:37;;;;;;;2.70;2.50;;;20.80;99.90;;;;;;476278;250;28987;-72
2022/06/15 09:06:39;;;;;;;2.57;2.43;;;20.70;99.90;;;;;;476239;250;28785;-72
2022/06/15 09:08:40;;;;;;;2.83;2.63;;;21.10;99.90;;;;;;476229;250;28832;-72
2022/06/15 09:10:41;;;;;;;2.60;2.40;;;21.10;99.90;;;;;;476282;249;28951;-74
2022/06/15 09:12:58;;;;;;;2.67;2.47;;;21.10;99.90;;;;;;476290;250;28837;-72
2022/06/15 09:14:56;;;;;;;2.63;2.43;;;21.10;99.90;;;;;;476018;250;28913;-72
2022/06/15 09:16:57;;;;;;;3.20;2.90;;;21.10;99.90;;;;;;476286;250;28785;-72
2022/06/15 09:19:01;;;;;;;2.87;2.67;;;21.10;99.90;;;;;;476243;250;28824;-72
2022/06/15 09:20:59;;;;;;;2.40;2.27;;;21.00;99.90;;;;;;476145;250;28812;-73
2022/06/15 09:23:01;;;;;;;2.50;2.30;;;21.10;99.90;;;;;;476303;250;28799;-72
2022/06/15 09:25:02;;;;;;;2.60;2.40;;;21.30;99.90;;;;;;476301;250;29340;-73
2022/06/15 09:27:03;;;;;;;2.70;2.50;;;21.30;99.90;;;;;;476262;250;29615;-72
2022/06/15 09:29:04;;;;;;;2.72;2.50;;;21.40;99.90;;;;;;472921;250;36818;-72
2022/06/15 09:31:06;;;;;;;2.60;2.40;;;21.60;99.90;;;;;;476311;250;27481;-75
2022/06/15 09:33:07;;;;;;;2.53;2.33;;;21.60;99.90;;;;;;476291;250;28832;-72
2022/06/15 09:35:08;;;;;;;3.10;2.80;;;21.70;99.90;;;;;;476286;250;28904;-72
2022/06/15 09:37:09;;;;;;;3.23;2.80;;;21.70;99.90;;;;;;476275;250;28858;-73
2022/06/15 09:39:11;;;;;;;3.53;2.50;;;21.70;99.90;;;;;;476286;250;28858;-72
2022/06/15 09:41:12;;;;;;;3.23;2.90;;;21.80;99.90;;;;;;476317;250;28825;-75
2022/06/15 09:43:13;;;;;;;4.50;2.80;;;21.70;99.90;;;;;;476295;250;28834;-72
2022/06/15 09:45:14;;;;;;;4.27;2.87;;;21.60;99.90;;;;;;476297;250;28825;-72
2022/06/15 09:47:16;;;;;;;2.90;2.70;;;21.70;99.90;;;;;;476291;250;28802;-72
2022/06/15 09:49:21;;;;;;;3.03;2.73;;;22.00;99.90;;;;;;476293;250;29260;-72
2022/06/15 09:51:18;;;;;;;3.83;2.90;;;22.20;99.90;;;;;;475985;250;29388;-73
2022/06/15 09:53:19;;;;;;;3.83;3.10;;;22.50;99.90;;;;;;476242;250;29414;-72
2022/06/15 09:55:22;;;;;;;3.63;3.33;;;22.60;99.90;;;;;;476310;250;28886;-73
2022/06/15 09:57:22;;;;;;;3.70;3.30;;;22.60;99.90;;;;;;476162;250;28820;-72
2022/06/15 09:59:23;;;;;;;3.40;3.10;;;22.80;99.90;;;;;;476286;250;28894;-72
2022/06/15 10:01:25;;;;;;;3.60;3.30;;;22.70;99.90;;;;;;476295;250;28825;-73
2022/06/15 10:03:26;;;;;;;3.30;3.00;;;22.80;99.90;;;;;;476302;250;28802;-72
2022/06/15 10:05:27;;;;;;;3.60;3.30;;;22.50;99.90;;;;;;476306;250;28833;-72
2022/06/15 10:07:28;;;;;;;4.87;3.10;;;22.70;99.90;;;;;;476277;250;28794;-72
2022/06/15 10:09:29;;;;;;;3.20;2.90;;;22.90;99.90;;;;;;476309;250;28778;-72
2022/06/15 10:11:31;;;;;;;3.40;3.10;;;22.70;99.90;;;;;;476306;250;28908;-73
2022/06/15 10:13:32;;;;;;;3.80;2.83;;;22.60;99.90;;;;;;476165;250;29258;-72
2022/06/15 10:15:33;;;;;;;2.93;2.67;;;22.70;99.90;;;;;;476288;250;29350;-72
2022/06/15 10:17:34;;;;;;;4.00;2.80;;;23.00;99.90;;;;;;476272;250;30045;-73
2022/06/15 10:19:36;;;;;;;2.93;2.70;;;23.10;99.90;;;;;;476275;250;29366;-73
2022/06/15 10:21:37;;;;;;;3.03;2.83;;;23.00;99.90;;;;;;476260;249;28836;-73
2022/06/15 10:23:38;;;;;;;2.63;2.43;;;23.00;99.90;;;;;;476289;250;28790;-72
2022/06/15 10:25:39;;;;;;;3.30;3.00;;;23.30;99.90;;;;;;476301;250;28899;-72
2022/06/15 10:27:41;;;;;;;3.60;2.83;;;23.30;99.90;;;;;;476317;250;28871;-72
2022/06/15 10:29:42;;;;;;;3.27;2.97;;;23.70;99.90;;;;;;476341;250;28812;-72
2022/06/15 10:31:43;;;;;;;3.20;3.00;;;23.60;99.90;;;;;;476329;250;28836;-73
2022/06/15 10:33:44;;;;;;;3.40;3.17;;;23.40;99.90;;;;;;476304;250;28793;-72
2022/06/15 10:35:46;;;;;;;3.00;2.80;;;23.70;99.90;;;;;;476288;250;28822;-72
2022/06/15 10:37:47;;;;;;;4.30;3.47;;;23.80;99.90;;;;;;476305;250;30014;-72
2022/06/15 10:39:48;;;;;;;5.97;3.40;;;24.30;99.90;;;;;;476301;250;29359;-72
2022/06/15 10:41:50;;;;;;;4.10;3.80;;;24.40;99.90;;;;;;476322;250;29412;-72